Time;durP1;ratioP1;P1;durP2;ratioP2;P2;SDS_P1;SDS_P2;PMS_P1;PMS_P2;Temp;Humidity;BMP_temperature;BMP_pressure;BME280_temperature;BME280_humidity;BME280_pressure;Samples;Min_cycle;Max_cycle;Signal;HPM_P1;HPM_P2
2022/01/21 00:01:04;;;;;;;;;4.00;4.00;;;;;4.00;100.00;103272.50;5121351;27;45430;-82
2022/01/21 00:03:29;;;;;;;;;9.00;7.00;;;;;3.95;100.00;103268.97;5121694;27;45572;-82
2022/01/21 00:05:55;;;;;;;;;3.67;3.67;;;;;3.91;100.00;103269.84;5101131;27;45319;-83
2022/01/21 00:08:21;;;;;;;;;13.25;8.00;;;;;3.92;100.00;103266.38;5118601;27;44792;-82
2022/01/21 00:10:47;;;;;;;;;8.33;7.00;;;;;3.91;100.00;103256.69;5118261;27;44946;-82
2022/01/21 00:13:33;;;;;;;;;8.25;4.00;;;;;3.89;100.00;103261.09;5117633;27;45241;-81
2022/01/21 00:16:22;;;;;;;;;4.25;4.25;;;;;3.89;100.00;103260.22;5119002;27;44788;-81
2022/01/21 00:19:03;;;;;;;;;7.00;6.00;;;;;3.84;100.00;103263.72;5090666;27;45357;-83
2022/01/21 00:32:28;;;;;;;;;8.67;8.67;;;;;3.72;100.00;103247.91;5117878;27;45513;-81
2022/01/21 00:34:53;;;;;;;;;4.00;0.67;;;;;3.69;100.00;103250.53;5099003;27;45162;-80
2022/01/21 00:37:19;;;;;;;;;10.33;6.00;;;;;3.71;100.00;103243.53;5117412;27;44842;-81
2022/01/21 00:39:50;;;;;;;;;19.33;12.00;;;;;3.68;100.00;103233.03;5117663;27;44902;-81
2022/01/21 00:42:44;;;;;;;;;14.00;10.00;;;;;3.66;100.00;103245.25;5116511;27;44831;-82
2022/01/21 00:45:01;;;;;;;;;9.67;8.67;;;;;3.66;100.00;103236.50;5116857;27;45292;-81
2022/01/21 00:47:28;;;;;;;;;14.00;12.00;;;;;3.65;100.00;103240.88;5117097;27;45388;-81
2022/01/21 00:49:54;;;;;;;;;8.00;6.50;;;;;3.66;100.00;103237.38;5117123;27;44835;-81
2022/01/21 00:52:20;;;;;;;;;16.67;13.67;;;;;3.66;100.00;103231.25;5117276;27;44744;-81
2022/01/21 00:54:45;;;;;;;;;17.00;10.00;;;;;3.70;100.00;103241.78;5121183;27;45200;-81
2022/01/21 00:57:11;;;;;;;;;10.33;4.67;;;;;3.69;100.00;103239.16;5122559;27;45238;-81
2022/01/21 00:59:36;;;;;;;;;14.00;10.33;;;;;3.68;100.00;103240.91;5124194;27;44879;-82
2022/01/21 01:02:03;;;;;;;;;16.67;10.00;;;;;3.67;100.00;103230.38;5123724;27;44790;-83
2022/01/21 01:04:28;;;;;;;;;7.00;7.00;;;;;3.68;100.00;103247.91;5123160;27;45189;-81
2022/01/21 01:06:54;;;;;;;;;6.00;6.00;;;;;3.63;100.00;103254.88;5122720;27;44831;-81
2022/01/21 01:09:21;;;;;;;;;9.00;6.50;;;;;3.64;100.00;103243.53;5121276;27;44869;-81
2022/01/21 01:22:44;;;;;;;;;10.00;7.33;;;;;3.51;100.00;103242.59;5119996;27;45542;-81
2022/01/21 01:27:54;;;;;;;;;8.67;8.67;;;;;3.50;100.00;103243.47;5120394;27;44842;-81
2022/01/21 01:30:24;;;;;;;;;17.67;10.00;;;;;3.53;100.00;103241.75;5120926;27;45206;-81
2022/01/21 01:32:51;;;;;;;;;10.50;6.75;;;;;3.55;100.00;103242.63;5121519;27;44834;-81
2022/01/21 01:35:19;;;;;;;;;8.67;7.00;;;;;3.53;100.00;103238.22;5122540;27;45012;-80
2022/01/21 01:40:54;;;;;;;;;11.67;7.00;;;;;3.51;100.00;103238.22;5120090;27;44819;-80
2022/01/21 01:49:27;;;;;;;;;8.00;7.00;;;;;3.52;100.00;103239.09;5119649;27;44834;-81
2022/01/21 01:51:36;;;;;;;;;12.33;6.00;;;;;3.48;100.00;103239.97;5119925;27;44711;-80
2022/01/21 01:54:08;;;;;;;;;14.00;11.00;;;;;3.42;100.00;103245.19;5120011;27;44756;-81
2022/01/21 01:56:45;;;;;;;;;12.00;4.00;;;;;3.35;100.00;103266.22;5119665;27;45381;-81
2022/01/21 01:59:12;;;;;;;;;9.00;8.00;;;;;3.31;100.00;103253.06;5120394;27;44731;-81
2022/01/21 02:01:37;;;;;;;;;16.00;10.67;;;;;3.27;100.00;103265.28;5120341;27;45485;-78
2022/01/21 02:04:03;;;;;;;;;11.67;7.67;;;;;3.31;100.00;103255.69;5119878;27;44836;-79
2022/01/21 02:06:28;;;;;;;;;11.67;7.67;;;;;3.31;100.00;103266.19;5122160;27;45030;-80
2022/01/21 02:08:55;;;;;;;;;16.33;13.00;;;;;3.28;100.00;103259.16;5121429;27;45355;-80
2022/01/21 02:11:20;;;;;;;;;12.00;10.33;;;;;3.30;100.00;103259.19;5119558;27;44646;-81
2022/01/21 02:13:50;;;;;;;;;13.67;8.67;;;;;3.28;100.00;103259.16;5119506;27;45312;-81
2022/01/21 02:16:34;;;;;;;;;15.33;8.00;;;;;3.23;100.00;103265.25;5100960;27;45577;-82
2022/01/21 02:21:47;;;;;;;;;12.00;8.00;;;;;3.22;100.00;103259.13;5119369;27;44760;-80
2022/01/21 02:24:30;;;;;;;;;7.33;7.33;;;;;3.18;100.00;103259.13;5118491;27;45417;-80
2022/01/21 02:26:56;;;;;;;;;8.67;8.67;;;;;3.14;100.00;103275.72;5119309;27;45445;-81
2022/01/21 02:29:28;;;;;;;;;12.00;4.33;;;;;3.15;100.00;103273.13;5119344;27;45478;-81
2022/01/21 02:31:55;;;;;;;;;9.67;8.00;;;;;3.12;100.00;103259.97;5119508;27;44748;-80
2022/01/21 02:34:21;;;;;;;;;9.67;8.00;;;;;3.05;100.00;103259.06;5119417;27;44861;-80
2022/01/21 02:36:46;;;;;;;;;15.00;9.67;;;;;3.03;100.00;103266.06;5118923;27;45303;-80
2022/01/21 02:39:11;;;;;;;;;10.67;7.33;;;;;3.04;100.00;103265.16;5100813;27;45312;-80
2022/01/21 02:41:37;;;;;;;;;12.67;10.33;;;;;3.02;100.00;103263.44;5122615;27;44959;-80
2022/01/21 02:44:02;;;;;;;;;7.33;6.00;;;;;2.99;100.00;103259.03;5126460;27;45504;-81
2022/01/21 02:46:28;;;;;;;;;18.33;8.00;;;;;2.96;100.00;103259.03;5121896;27;45273;-80
2022/01/21 02:48:53;;;;;;;;;8.00;7.00;;;;;2.96;100.00;103260.78;5100044;27;44828;-80
2022/01/21 02:51:19;;;;;;;;;12.67;11.00;;;;;2.96;100.00;103255.53;5119323;27;44797;-80
2022/01/21 02:56:13;;;;;;;;;14.00;9.33;;;;;2.89;100.00;103251.09;5119498;27;44964;-80
2022/01/21 02:58:39;;;;;;;;;7.00;4.33;;;;;2.88;100.00;103252.84;5120342;27;44853;-80
2022/01/21 03:01:06;;;;;;;;;12.33;11.33;;;;;2.89;100.00;103269.47;5120701;27;44830;-81
2022/01/21 03:03:32;;;;;;;;;14.33;7.67;;;;;2.85;100.00;103255.44;5122377;27;44781;-80
2022/01/21 03:05:57;;;;;;;;;15.67;11.00;;;;;2.79;100.00;103268.53;5122371;27;45327;-79
2022/01/21 03:08:23;;;;;;;;;5.33;5.00;;;;;2.78;100.00;103259.78;5121125;27;45305;-80
2022/01/21 03:10:48;;;;;;;;;14.00;11.33;;;;;2.80;100.00;103270.28;5124937;27;44705;-79
2022/01/21 03:13:15;;;;;;;;;10.00;7.33;;;;;2.77;100.00;103265.03;5125408;27;45504;-80
2022/01/21 03:15:41;;;;;;;;;11.67;8.00;;;;;2.77;100.00;103265.91;5120066;27;45236;-80
2022/01/21 03:18:06;;;;;;;;;9.33;7.67;;;;;2.77;100.00;103257.16;5122789;27;44864;-80
2022/01/21 03:20:32;;;;;;;;;11.67;8.67;;;;;2.75;100.00;103258.88;5128340;27;44938;-79
2022/01/21 03:22:59;;;;;;;;;7.00;7.00;;;;;2.72;100.00;103258.88;5120539;27;44909;-79
2022/01/21 03:25:25;;;;;;;;;13.00;11.00;;;;;2.73;100.00;103274.63;5118936;27;45250;-81
2022/01/21 03:27:50;;;;;;;;;14.00;10.00;;;;;2.68;100.00;103276.34;5118672;27;45495;-80
2022/01/21 03:30:15;;;;;;;;;12.67;8.00;;;;;2.67;100.00;103266.72;5118932;27;45120;-79
2022/01/21 03:32:41;;;;;;;;;13.33;7.67;;;;;2.67;100.00;103281.59;5119258;27;44833;-81
2022/01/21 03:35:07;;;;;;;;;13.33;9.33;;;;;2.67;100.00;103281.59;5119118;27;45181;-80
2022/01/21 03:37:33;;;;;;;;;8.00;7.33;;;;;2.65;100.00;103275.44;5099762;27;44899;-80
2022/01/21 03:39:58;;;;;;;;;8.33;7.00;;;;;2.61;100.00;103278.91;5118429;27;44794;-80
2022/01/21 03:42:23;;;;;;;;;10.00;7.67;;;;;2.62;100.00;103270.19;5118442;27;44841;-81
2022/01/21 03:44:50;;;;;;;;;19.67;15.33;;;;;2.64;100.00;103269.31;5100021;27;45395;-80
2022/01/21 03:47:15;;;;;;;;;12.00;9.00;;;;;2.60;100.00;103282.41;5099440;27;44791;-80
2022/01/21 03:49:51;;;;;;;;;10.67;10.67;;;;;2.58;100.00;103283.28;5118115;27;44745;-81
2022/01/21 03:52:16;;;;;;;;;12.00;11.00;;;;;2.60;100.00;103288.53;5118437;27;44801;-80
2022/01/21 03:54:42;;;;;;;;;17.00;11.33;;;;;2.58;100.00;103291.16;5118797;27;45208;-80
2022/01/21 03:57:07;;;;;;;;;9.67;9.67;;;;;2.63;100.00;103304.31;5124387;27;45242;-82
2022/01/21 03:59:32;;;;;;;;;12.33;10.33;;;;;2.68;100.00;103288.59;5107985;27;44765;-80
2022/01/21 04:01:59;;;;;;;;;9.67;8.00;;;;;2.74;100.00;103294.75;5119748;27;44731;-80
2022/01/21 04:04:24;;;;;;;;;15.00;7.67;;;;;2.72;100.00;103286.00;5118173;27;45309;-80
2022/01/21 04:06:50;;;;;;;;;11.33;6.67;;;;;2.76;100.00;103290.41;5117974;27;45324;-80
2022/01/21 04:09:15;;;;;;;;;13.67;8.33;;;;;2.77;100.00;103281.66;5118166;27;45198;-80
2022/01/21 04:11:41;;;;;;;;;8.00;7.00;;;;;2.78;100.00;103285.16;5117893;27;45205;-79
2022/01/21 04:14:06;;;;;;;;;10.00;8.00;;;;;2.78;100.00;103287.78;5117757;27;44979;-81
2022/01/21 04:16:32;;;;;;;;;11.00;8.00;;;;;2.83;100.00;103288.69;5117478;27;44726;-80
2022/01/21 04:18:57;;;;;;;;;12.00;8.67;;;;;2.86;100.00;103290.47;5117815;27;45222;-80
2022/01/21 04:21:23;;;;;;;;;5.00;2.00;;;;;2.85;100.00;103289.56;5117715;27;44881;-80
2022/01/21 04:23:48;;;;;;;;;12.00;11.67;;;;;2.88;100.00;103297.47;5117425;27;45267;-81
2022/01/21 04:26:13;;;;;;;;;16.00;10.33;;;;;2.89;100.00;103301.84;5117525;27;44672;-81
2022/01/21 04:28:42;;;;;;;;;10.33;1.00;;;;;2.88;100.00;103297.47;5117229;27;44873;-81
2022/01/21 04:31:07;;;;;;;;;11.00;7.00;;;;;2.91;100.00;103297.50;5117435;27;44785;-80
2022/01/21 04:33:33;;;;;;;;;12.50;7.00;;;;;2.94;100.00;103299.25;5117074;27;46194;-80
2022/01/21 04:35:58;;;;;;;;;13.33;11.00;;;;;2.93;100.00;103300.13;5119645;27;45391;-79
2022/01/21 04:38:25;;;;;;;;;10.67;5.67;;;;;2.96;100.00;103301.03;5120626;27;44854;-80
2022/01/21 04:41:05;;;;;;;;;17.00;12.00;;;;;3.01;100.00;103298.44;5118886;27;44796;-80
2022/01/21 04:48:58;;;;;;;;;6.33;3.33;;;;;3.06;100.00;103305.47;5101700;27;44695;-81
2022/01/21 04:51:29;;;;;;;;;13.00;8.00;;;;;3.07;100.00;103303.72;5117275;27;44995;-81
2022/01/21 04:53:56;;;;;;;;;14.00;7.75;;;;;3.08;100.00;103287.09;5098647;27;47016;-81
2022/01/21 04:56:21;;;;;;;;;8.33;4.33;;;;;2.98;100.00;103283.53;5117939;27;44785;-81
2022/01/21 04:58:48;;;;;;;;;17.33;6.67;;;;;3.01;100.00;103296.69;5098567;27;45391;-81
2022/01/21 05:01:13;;;;;;;;;9.67;7.67;;;;;3.01;100.00;103290.56;5117387;27;45369;-81
2022/01/21 05:03:41;;;;;;;;;8.67;8.67;;;;;3.05;100.00;103298.47;5117064;27;45287;-81
2022/01/21 05:06:07;;;;;;;;;14.67;9.00;;;;;3.07;100.00;103296.72;5117301;27;45500;-80
2022/01/21 05:08:52;;;;;;;;;61.33;48.33;;;;;3.04;100.00;103303.69;5116846;27;44787;-80
2022/01/21 05:11:17;;;;;;;;;11.67;6.00;;;;;3.01;100.00;103290.56;5117239;27;44740;-80
2022/01/21 05:13:52;;;;;;;;;15.67;13.00;;;;;3.01;100.00;103295.81;5098740;27;45320;-80
2022/01/21 05:16:31;;;;;;;;;10.33;8.00;;;;;3.04;100.00;103308.94;5120651;27;45353;-80
2022/01/21 05:18:58;;;;;;;;;10.67;10.67;;;;;3.01;100.00;103306.31;5117739;27;44767;-81
2022/01/21 05:21:23;;;;;;;;;10.33;8.00;;;;;3.01;100.00;103301.94;5117327;27;45442;-81
2022/01/21 05:23:49;;;;;;;;;11.00;8.00;;;;;3.04;100.00;103299.31;5098088;27;45399;-80
2022/01/21 05:26:14;;;;;;;;;16.67;16.33;;;;;3.10;100.00;103293.25;5116751;27;45348;-80
2022/01/21 05:28:40;;;;;;;;;10.33;10.33;;;;;3.08;100.00;103303.72;5098185;27;45482;-80
2022/01/21 05:31:05;;;;;;;;;12.00;11.00;;;;;3.12;100.00;103298.50;5116671;27;44812;-80
2022/01/21 05:33:31;;;;;;;;;12.33;11.67;;;;;3.11;100.00;103308.13;5116101;27;45009;-81
2022/01/21 05:35:56;;;;;;;;;7.33;7.00;;;;;3.12;100.00;103302.00;5097876;27;44778;-80
2022/01/21 05:38:22;;;;;;;;;8.33;8.33;;;;;3.10;100.00;103306.38;5116547;27;44821;-80
2022/01/21 05:40:47;;;;;;;;;7.25;7.25;;;;;3.15;100.00;103312.53;5119417;27;44858;-80
2022/01/21 05:43:13;;;;;;;;;12.67;8.67;;;;;3.17;100.00;103313.41;5101204;27;47005;-81
2022/01/21 05:48:23;;;;;;;;;8.00;7.00;;;;;3.16;100.00;103326.53;5120152;27;44850;-80
2022/01/21 05:50:48;;;;;;;;;9.67;8.00;;;;;3.12;100.00;103328.25;5120443;27;44846;-82
2022/01/21 05:53:14;;;;;;;;;10.67;8.33;;;;;3.16;100.00;103323.91;5120851;27;45296;-80
2022/01/21 05:55:42;;;;;;;;;6.75;6.75;;;;;3.16;100.00;103318.66;5119380;27;45160;-81
2022/01/21 05:58:15;;;;;;;;;13.33;7.33;;;;;3.15;100.00;103330.03;5124172;27;44797;-81
2022/01/21 06:00:43;;;;;;;;;16.67;10.33;;;;;3.14;100.00;103326.50;5123099;27;45367;-86
2022/01/21 06:03:08;;;;;;;;;8.33;7.00;;;;;3.13;100.00;103329.13;5102241;27;45041;-81
2022/01/21 06:05:34;;;;;;;;;14.33;11.00;;;;;3.11;100.00;103330.88;5119971;27;44757;-80
2022/01/21 06:08:04;;;;;;;;;7.33;6.00;;;;;3.08;100.00;103324.72;5120340;27;44820;-80
2022/01/21 06:10:30;;;;;;;;;7.67;6.00;;;;;3.10;100.00;103330.00;5119930;27;45218;-81
2022/01/21 06:12:56;;;;;;;;;7.00;7.00;;;;;3.12;100.00;103335.25;5119167;27;45252;-82
2022/01/21 06:15:22;;;;;;;;;9.33;6.00;;;;;3.10;100.00;103330.00;5119933;27;44782;-82
2022/01/21 06:17:47;;;;;;;;;12.00;7.00;;;;;3.09;100.00;103338.72;5120092;27;44743;-83
2022/01/21 06:20:13;;;;;;;;;9.33;6.00;;;;;3.07;100.00;103336.09;5119657;27;45190;-83
2022/01/21 06:22:41;;;;;;;;;7.00;5.67;;;;;3.09;100.00;103342.25;5100970;27;44980;-83
2022/01/21 06:25:07;;;;;;;;;13.75;6.00;;;;;3.11;100.00;103342.25;5119440;27;44765;-83
2022/01/21 06:27:35;;;;;;;;;7.50;5.50;;;;;3.14;100.00;103347.50;5119692;27;45542;-84
2022/01/21 06:30:01;;;;;;;;;12.33;7.00;;;;;3.13;100.00;103327.38;5119801;27;45234;-83
2022/01/21 06:32:27;;;;;;;;;8.25;4.25;;;;;3.12;100.00;103327.38;5117881;27;45339;-83
2022/01/21 06:34:52;;;;;;;;;6.75;5.00;;;;;3.10;100.00;103332.63;5120414;27;44810;-82
2022/01/21 06:37:17;;;;;;;;;9.25;7.50;;;;;3.06;100.00;103336.97;5121475;27;44773;-85
2022/01/21 06:39:43;;;;;;;;;12.50;6.00;;;;;3.11;100.00;103341.38;5125312;27;44922;-84
2022/01/21 06:42:09;;;;;;;;;5.75;5.75;;;;;3.14;100.00;103337.00;5108430;27;46707;-84
2022/01/21 06:44:34;;;;;;;;;3.75;3.75;;;;;3.12;100.00;103332.63;5120907;27;44921;-84
2022/01/21 06:47:00;;;;;;;;;4.33;4.33;;;;;3.11;100.00;103333.50;5120990;27;44887;-82
2022/01/21 06:49:25;;;;;;;;;10.33;8.33;;;;;3.12;100.00;103344.00;5119901;27;44756;-84
2022/01/21 06:51:51;;;;;;;;;8.00;6.67;;;;;3.13;100.00;103348.38;5117917;27;45367;-84
2022/01/21 06:54:16;;;;;;;;;12.33;7.67;;;;;3.18;100.00;103343.16;5118740;27;45244;-85
2022/01/21 06:56:41;;;;;;;;;10.00;4.00;;;;;3.19;100.00;103351.06;5119855;27;44843;-83
2022/01/21 06:59:07;;;;;;;;;6.00;4.00;;;;;3.22;100.00;103347.56;5100855;27;44909;-84
2022/01/21 07:01:32;;;;;;;;;3.67;2.67;;;;;3.20;100.00;103354.56;5119431;27;45562;-85
2022/01/21 07:03:58;;;;;;;;;10.25;7.00;;;;;3.23;100.00;103359.81;5100784;27;45505;-84
2022/01/21 07:06:23;;;;;;;;;9.25;8.00;;;;;3.23;100.00;103370.34;5118759;27;44824;-84
2022/01/21 07:08:48;;;;;;;;;5.00;4.67;;;;;3.21;100.00;103375.59;5102879;27;44901;-83
2022/01/21 07:11:14;;;;;;;;;11.00;7.00;;;;;3.20;100.00;103381.72;5123028;27;45281;-85
2022/01/21 07:13:40;;;;;;;;;9.33;6.00;;;;;3.22;100.00;103376.47;5124374;27;45471;-83
2022/01/21 07:16:05;;;;;;;;;9.67;7.00;;;;;3.26;100.00;103380.88;5129458;27;44777;-84
2022/01/21 07:18:31;;;;;;;;;10.00;8.00;;;;;3.21;100.00;103375.59;5130247;27;45454;-84
2022/01/21 07:20:56;;;;;;;;;7.00;7.00;;;;;3.22;100.00;103377.34;5127896;27;46370;-85
2022/01/21 07:23:22;;;;;;;;;6.00;5.75;;;;;3.22;100.00;103377.34;5126617;27;44796;-85
2022/01/21 07:25:47;;;;;;;;;9.33;8.00;;;;;3.27;100.00;103386.13;5121075;27;44847;-86
2022/01/21 07:28:13;;;;;;;;;2.00;2.00;;;;;3.30;100.00;103377.41;5100952;27;45360;-84
2022/01/21 07:30:38;;;;;;;;;7.67;7.67;;;;;3.35;100.00;103386.19;5118739;27;45151;-84
2022/01/21 07:33:04;;;;;;;;;8.67;7.00;;;;;3.35;100.00;103379.19;5100446;27;44796;-85
2022/01/21 07:35:29;;;;;;;;;2.67;2.67;;;;;3.38;100.00;103383.56;5120066;27;45387;-83
2022/01/21 07:37:54;;;;;;;;;4.00;4.00;;;;;3.37;100.00;103396.69;5122035;27;45240;-84
2022/01/21 07:40:20;;;;;;;;;3.75;3.75;;;;;3.42;100.00;103387.09;5122025;27;45351;-85
2022/01/21 07:42:45;;;;;;;;;7.67;6.00;;;;;3.44;100.00;103404.63;5119885;27;44766;-85
2022/01/21 07:45:11;;;;;;;;;10.00;6.00;;;;;3.37;100.00;103397.56;5120886;27;45356;-83
2022/01/21 07:47:36;;;;;;;;;8.00;7.00;;;;;3.44;100.00;103403.75;5120520;27;44743;-84
2022/01/21 07:50:02;;;;;;;;;8.33;8.00;;;;;3.44;100.00;103409.00;5091633;27;45398;-84
2022/01/21 07:52:28;;;;;;;;;11.00;7.00;;;;;3.46;100.00;103410.75;5119561;27;45230;-83
2022/01/21 07:54:54;;;;;;;;;12.25;7.50;;;;;3.47;100.00;103407.25;5100850;27;44847;-86
2022/01/21 07:57:19;;;;;;;;;11.75;7.25;;;;;3.53;100.00;103407.31;5122435;27;44918;-85
2022/01/21 07:59:45;;;;;;;;;14.00;10.67;;;;;3.53;100.00;103411.66;5118485;27;45028;-84
2022/01/21 08:02:10;;;;;;;;;11.00;5.33;;;;;3.50;100.00;103411.66;5119081;27;45248;-83
2022/01/21 08:04:37;;;;;;;;;12.33;9.67;;;;;3.52;100.00;103412.53;5123065;27;44843;-84
2022/01/21 08:07:03;;;;;;;;;9.25;8.25;;;;;3.57;100.00;103422.19;5127360;27;45247;-84
2022/01/21 08:09:28;;;;;;;;;7.33;6.00;;;;;3.61;100.00;103415.22;5102067;27;45340;-84
2022/01/21 08:11:54;;;;;;;;;14.00;12.00;;;;;3.56;100.00;103420.44;5101405;27;45181;-85
2022/01/21 08:14:21;;;;;;;;;4.00;4.00;;;;;3.60;100.00;103435.38;5121207;27;44888;-83
2022/01/21 08:16:47;;;;;;;;;12.75;9.00;;;;;3.61;100.00;103429.25;5101064;27;45371;-84
2022/01/21 08:19:13;;;;;;;;;12.00;10.33;;;;;3.62;100.00;103424.84;5099177;27;46701;-84
2022/01/21 08:21:39;;;;;;;;;13.75;9.25;;;;;3.70;100.00;103423.16;5119216;27;44788;-84
2022/01/21 08:24:06;;;;;;;;;12.00;11.00;;;;;3.74;100.00;103421.44;5118351;27;44737;-84
2022/01/21 08:26:33;;;;;;;;;23.33;21.00;;;;;3.77;100.00;103429.31;5117554;27;45348;-83
2022/01/21 08:28:58;;;;;;;;;15.00;13.00;;;;;3.82;100.00;103425.84;5098077;27;45257;-84
2022/01/21 08:31:24;;;;;;;;;9.33;9.33;;;;;3.84;100.00;103424.09;5117467;27;44753;-84
2022/01/21 08:33:50;;;;;;;;;16.33;12.00;;;;;3.93;100.00;103415.38;5117685;27;45457;-85
2022/01/21 08:36:22;;;;;;;;;14.33;12.00;;;;;3.92;100.00;103421.50;5117782;27;44835;-83
2022/01/21 08:38:48;;;;;;;;;13.33;8.67;;;;;3.95;100.00;103420.63;5117737;27;45232;-85
2022/01/21 08:41:13;;;;;;;;;13.50;9.00;;;;;3.97;100.00;103421.53;5098725;27;44721;-82
2022/01/21 08:43:40;;;;;;;;;15.00;10.67;;;;;4.03;100.00;103422.44;5119011;27;45317;-84
2022/01/21 08:46:05;;;;;;;;;20.67;11.00;;;;;4.03;100.00;103426.81;5120363;27;44934;-83
2022/01/21 08:48:31;;;;;;;;;16.00;9.00;;;;;4.00;100.00;103424.16;5122865;27;45721;-84
2022/01/21 08:50:58;;;;;;;;;14.67;11.67;;;;;4.03;100.00;103425.06;5107065;27;45421;-85
2022/01/21 08:53:41;;;;;;;;;12.00;10.33;;;;;4.03;100.00;103430.31;5101743;27;44813;-84
2022/01/21 08:56:13;;;;;;;;;14.33;13.00;;;;;4.08;100.00;103425.94;5095521;27;44806;-84
2022/01/21 08:58:39;;;;;;;;;16.00;9.00;;;;;4.20;100.00;103430.34;5078080;27;46812;-83
2022/01/21 09:01:05;;;;;;;;;14.67;10.00;;;;;4.26;100.00;103426.88;5097242;27;45345;-84
2022/01/21 09:03:31;;;;;;;;;17.67;12.00;;;;;4.32;100.00;103419.00;5079246;27;44699;-84
2022/01/21 09:05:57;;;;;;;;;12.00;10.33;;;;;4.31;100.00;103433.91;5097467;27;44946;-84
2022/01/21 09:08:25;;;;;;;;;7.00;6.00;;;;;4.29;100.00;103433.03;5078590;27;45343;-84
2022/01/21 09:10:54;;;;;;;;;12.33;8.33;;;;;4.18;100.00;103434.75;5097808;27;45269;-82
2022/01/21 09:13:22;;;;;;;;;12.75;7.75;;;;;4.27;100.00;103441.78;5098473;27;44782;-82
2022/01/21 09:15:48;;;;;;;;;18.00;10.25;;;;;4.28;100.00;103433.91;5082590;27;44865;-83
2022/01/21 09:18:18;;;;;;;;;14.50;11.25;;;;;4.30;100.00;103439.16;5082884;27;46614;-83
2022/01/21 09:20:44;;;;;;;;;11.25;9.75;;;;;4.33;100.00;103437.41;5082122;27;45204;-83
2022/01/21 09:23:09;;;;;;;;;7.00;7.00;;;;;4.29;100.00;103435.66;5086308;27;45533;-83
2022/01/21 09:25:35;;;;;;;;;15.67;14.00;;;;;4.31;100.00;103438.31;5120969;27;44865;-83
2022/01/21 09:28:01;;;;;;;;;13.00;10.00;;;;;4.43;100.00;103435.69;5103209;27;45303;-83
2022/01/21 09:30:27;;;;;;;;;10.00;10.00;;;;;4.51;100.00;103440.97;5105589;27;45478;-84
2022/01/21 09:32:58;;;;;;;;;12.33;9.67;;;;;4.48;100.00;103439.19;5112168;27;44784;-85
2022/01/21 09:35:24;;;;;;;;;11.33;8.00;;;;;4.58;100.00;103446.25;5107701;27;44893;-82
2022/01/21 09:37:49;;;;;;;;;21.25;11.50;;;;;4.53;100.00;103450.63;5104488;27;45412;-85
2022/01/21 09:40:15;;;;;;;;;15.00;13.00;;;;;4.57;100.00;103447.13;5103974;27;44903;-82
2022/01/21 09:42:41;;;;;;;;;19.33;15.00;;;;;4.58;100.00;103453.25;5105687;27;44879;-83
2022/01/21 09:45:12;;;;;;;;;15.33;15.33;;;;;4.61;100.00;103456.78;5105439;27;44971;-84
2022/01/21 09:47:48;;;;;;;;;8.67;8.67;;;;;4.53;100.00;103476.94;5125167;27;45250;-84
2022/01/21 09:50:17;;;;;;;;;15.67;13.00;;;;;4.51;100.00;103468.19;5122455;27;44726;-84
2022/01/21 09:52:52;;;;;;;;;14.75;10.50;;;;;4.51;100.00;103481.34;5126653;27;44859;-84
2022/01/21 09:55:21;;;;;;;;;19.33;16.33;;;;;4.48;100.00;103491.84;5125638;27;45360;-84
2022/01/21 09:57:48;;;;;;;;;15.00;10.33;;;;;4.55;100.00;103493.63;5125021;27;45243;-84
2022/01/21 10:00:15;;;;;;;;;14.67;12.67;;;;;4.63;100.00;103483.09;5120029;27;45424;-84
2022/01/21 10:02:42;;;;;;;;;12.33;12.33;;;;;4.68;100.00;103484.00;5101802;27;44880;-85
2022/01/21 10:05:08;;;;;;;;;15.50;13.00;;;;;4.73;100.00;103484.88;5120231;27;44760;-84
2022/01/21 10:07:38;;;;;;;;;10.50;10.50;;;;;4.75;100.00;103491.03;5101363;27;47558;-85
2022/01/21 10:10:08;;;;;;;;;16.75;12.00;;;;;4.79;100.00;103491.94;5102546;27;44899;-84
2022/01/21 10:12:35;;;;;;;;;13.50;8.00;;;;;4.83;100.00;103488.41;5121221;27;44836;-84
2022/01/21 10:15:01;;;;;;;;;15.75;10.50;;;;;4.79;100.00;103491.94;5123251;27;44794;-84
2022/01/21 10:17:27;;;;;;;;;17.50;13.75;;;;;4.88;100.00;103481.38;5126627;27;45325;-84
2022/01/21 10:19:52;;;;;;;;;11.50;11.50;;;;;4.92;100.00;103483.16;5127174;27;44786;-85
2022/01/21 10:22:23;;;;;;;;;11.33;9.67;;;;;5.01;100.00;103487.56;5104401;27;45388;-85
2022/01/21 10:25:02;;;;;;;;;18.25;14.50;;;;;5.08;100.00;103489.31;5123069;27;44804;-85
2022/01/21 10:27:31;;;;;;;;;12.75;11.25;;;;;5.08;100.00;103487.56;5121945;27;45068;-84
2022/01/21 10:29:58;;;;;;;;;7.50;7.25;;;;;5.08;100.00;103490.19;5123813;27;44806;-85
2022/01/21 10:32:41;;;;;;;;;10.25;7.25;;;;;5.16;100.00;103490.19;5105780;27;44802;-84
2022/01/21 10:35:31;;;;;;;;;10.75;10.25;;;;;5.16;100.00;103484.91;5121010;27;45685;-84
2022/01/21 10:38:15;;;;;;;;;14.25;10.00;;;;;5.18;100.00;103482.31;5087209;27;46733;-84
2022/01/21 10:40:40;;;;;;;;;8.67;4.33;;;;;5.20;100.00;103480.53;5102512;27;44785;-84
2022/01/21 10:43:19;;;;;;;;;15.00;13.67;;;;;5.13;100.00;103491.09;5098791;27;44777;-86
2022/01/21 10:45:52;;;;;;;;;20.33;14.67;;;;;5.21;100.00;103491.06;5084548;27;44917;-84
2022/01/21 10:48:17;;;;;;;;;12.33;12.33;;;;;5.28;100.00;103471.75;5097307;27;47347;-84
2022/01/21 10:50:43;;;;;;;;;14.75;11.50;;;;;5.31;100.00;103479.63;5110867;27;45324;-85
2022/01/21 10:53:25;;;;;;;;;18.50;15.75;;;;;5.42;100.00;103479.66;5099985;27;44707;-85
2022/01/21 10:55:51;;;;;;;;;17.67;13.33;;;;;5.39;100.00;103491.06;5084364;27;45183;-84
2022/01/21 10:58:20;;;;;;;;;21.00;11.67;;;;;5.32;100.00;103477.91;5100306;27;46696;-84
2022/01/21 11:01:00;;;;;;;;;16.67;12.33;;;;;5.37;100.00;103471.75;5118266;27;45437;-84
2022/01/21 11:03:29;;;;;;;;;15.33;15.00;;;;;5.38;100.00;103465.59;5105846;27;44932;-87
2022/01/21 11:06:16;;;;;;;;;19.33;11.33;;;;;5.49;100.00;103464.69;5104260;27;45414;-85
2022/01/21 11:08:41;;;;;;;;;18.67;14.67;;;;;5.52;100.00;103459.41;5118603;27;45434;-85
2022/01/21 11:11:08;;;;;;;;;20.33;18.00;;;;;5.54;100.00;103462.91;5119511;27;44758;-86
2022/01/21 11:13:40;;;;;;;;;13.67;13.67;;;;;5.63;100.00;103471.69;5099943;27;44790;-83
2022/01/21 11:16:15;;;;;;;;;15.67;15.00;;;;;5.64;100.00;103465.53;5120037;27;44832;-86
2022/01/21 11:18:50;;;;;;;;;16.67;12.67;;;;;5.52;100.00;103472.59;5104498;27;46406;-86
2022/01/21 11:21:15;;;;;;;;;18.67;13.33;;;;;5.33;100.00;103462.06;5124434;27;44838;-85
2022/01/21 11:24:05;;;;;;;;;14.33;10.33;;;;;5.31;100.00;103469.09;5092898;27;44852;-90
2022/01/21 11:26:31;;;;;;;;;15.00;10.33;;;;;5.41;100.00;103476.13;5099660;27;44958;-85
2022/01/21 11:29:04;;;;;;;;;18.00;11.00;;;;;5.46;100.00;103467.31;5103104;27;46680;-85
2022/01/21 11:31:31;;;;;;;;;19.33;14.67;;;;;5.63;100.00;103462.91;5125139;27;44699;-85
2022/01/21 11:33:56;;;;;;;;;19.67;13.33;;;;;5.77;100.00;103470.78;5105608;27;44650;-85
2022/01/21 11:36:26;;;;;;;;;18.33;15.33;;;;;5.84;100.00;103462.81;5098322;27;44801;-87
2022/01/21 11:38:55;;;;;;;;;17.00;16.33;;;;;5.80;100.00;103455.84;5117921;27;45261;-85
2022/01/21 11:41:24;;;;;;;;;16.00;16.00;;;;;5.84;100.00;103464.59;5122981;27;44857;-85
2022/01/21 11:43:52;;;;;;;;;16.75;12.00;;;;;5.89;100.00;103463.69;5124478;27;44840;-85
2022/01/21 11:46:47;;;;;;;;;18.75;15.50;;;;;5.95;100.00;103454.03;5102954;27;44882;-86
2022/01/21 11:49:17;;;;;;;;;17.33;12.00;;;;;6.01;100.00;103452.25;5124882;27;45348;-85
2022/01/21 11:51:43;;;;;;;;;15.25;15.25;;;;;6.02;100.00;103447.84;5124616;27;44797;-86
2022/01/21 11:54:22;;;;;;;;;19.00;17.00;;;;;6.02;100.00;103440.81;5104195;27;44864;-85
2022/01/21 11:57:04;;;;;;;;;18.50;16.75;;;;;6.01;100.00;103443.47;5118335;27;45481;-85
2022/01/21 11:59:42;;;;;;;;;21.75;16.75;;;;;6.08;100.00;103442.53;5117473;27;45226;-85
2022/01/21 12:02:31;;;;;;;;;20.33;19.33;;;;;5.97;100.00;103445.22;5110312;27;44885;-85
2022/01/21 12:05:02;;;;;;;;;17.67;15.33;;;;;5.91;100.00;103450.50;5117952;27;44723;-86
2022/01/21 12:07:33;;;;;;;;;16.50;12.75;;;;;6.09;100.00;103445.19;5051804;27;1326919;-85